الصفحة الرئيسية
METAR-TAF:

METAR-TAF

مطار :

مطار نغوراه راي الدولي

دنباسار, إندونيسيا

دائرة عرض: 08-44-53S, خط طول: 115-10-03E, ارتفاع: 4 متر

مراقبة الطقس الحالي

تاريخ ووقت الإصدار 30 دقيقة قبل الساعة 20:30UTC
ريح 1 عقدةمن اتجاهات متغيرة
درجة الحرارة 27°درجة مئوية
الرطوبة 89%
ضغط 1011 hPa
الرؤية 10 كم أو أكثر
غيوم قليلة على ارتفاع 1700 قدم

METAR: WADD 172030Z VRB01KT 9999 FEW017 27/25 Q1011 NOSIG

زمن: 04:00 (21:00 UTC)

توقعات

تاريخ ووقت الإصدار 4ساعات و 0 دقيقة قبل الساعة 17:00UTC
التوقعات صالحة من17 الساعة 18 UTC إلى 18 الساعة 18 UTC
ريح 5 عقدةمن اتجاهات متغيرة
الرؤية 10 كم أو أكثر
غيوم متفرقة على ارتفاع 1600 قدم
مؤقت
من 17 الساعة 20 UTC إلى 18 الساعة 00 UTC
الرؤية: 5000 متر
غيوم قليلة على ارتفاع 1500 قدم, مزنة ركامية.
غيوم مفككة على ارتفاع 1500 قدم
مطر
أصبح
من 18 الساعة 02 UTC إلى 18 الساعة 04 UTC
ريح 10 عقدة من الجنوب الشرقي

TAF: WADD 171700Z 1718/1818 VRB05KT 9999 SCT016 TEMPO 1720/1800 5000 RA FEW015CB BKN015 BECMG 1802/1804 13010KT

أرصاد الطقس والتوقعات من أكثر من 4000 مطار (تقارير الطقس للمطار METAR والتنبؤ بالطقس بالمطارTAF).

المحطات المتاحة هي النقط الصفراء والحمراء على الخريطة.

حرك المؤشر فوق النقطة لمعرفة اسم المحطة.

ثم انقر لمعرفة أرصاد وتوقعات الطقس.

لتغيير الخارطة: اضغط على الأزرار الخضراء مع رمز الصليب الأسود للتكبير. على الزر الأخضر مع شرطة للتصغير، أو على الأسهم الخضراء للخرائط المجاورة.


METAR-TAF: